createdAt,value
2017-09-19T00:00:31.462Z,32.13
2017-09-19T00:02:58.966Z,25.33
2017-09-19T00:05:26.465Z,27.50
2017-09-19T00:07:54.207Z,31.00
2017-09-19T00:10:22.459Z,23.87
2017-09-19T00:12:49.917Z,29.70
2017-09-19T00:15:17.406Z,35.50
2017-09-19T00:17:45.630Z,29.97
2017-09-19T00:20:13.175Z,25.80
2017-09-19T00:22:40.652Z,24.70
2017-09-19T00:25:08.288Z,22.80
2017-09-19T00:27:35.786Z,23.17
2017-09-19T00:30:03.259Z,25.40
2017-09-19T00:32:31.741Z,28.43
2017-09-19T00:35:00.002Z,33.10
2017-09-19T00:37:27.470Z,32.80
2017-09-19T00:39:55.032Z,29.40
2017-09-19T00:42:24.192Z,28.67
2017-09-19T00:44:51.954Z,25.60
2017-09-19T00:47:19.419Z,30.77
2017-09-19T00:49:46.893Z,26.93
2017-09-19T00:52:14.387Z,32.87
2017-09-19T00:54:41.898Z,31.90
2017-09-19T00:57:09.607Z,38.97
2017-09-19T00:59:37.853Z,40.93
2017-09-19T01:02:05.657Z,31.80
2017-09-19T01:04:33.154Z,27.67
2017-09-19T01:07:01.146Z,27.80
2017-09-19T01:09:28.697Z,31.73
2017-09-19T01:11:56.179Z,33.73
2017-09-19T01:14:25.327Z,25.40
2017-09-19T01:16:52.826Z,32.37
2017-09-19T01:19:20.320Z,21.43
2017-09-19T01:21:47.884Z,27.83
2017-09-19T01:24:15.388Z,23.33
2017-09-19T01:26:42.977Z,20.50
2017-09-19T01:29:11.220Z,27.70
2017-09-19T01:31:38.748Z,29.93
2017-09-19T01:34:06.467Z,31.67
2017-09-19T01:36:34.701Z,25.23
2017-09-19T01:39:02.165Z,23.83
2017-09-19T01:41:29.760Z,26.70
2017-09-19T01:43:58.034Z,25.80
2017-09-19T01:46:26.314Z,30.00
2017-09-19T01:48:54.693Z,32.37
2017-09-19T01:51:23.117Z,29.50
2017-09-19T01:53:51.549Z,30.33
2017-09-19T01:56:19.801Z,34.93
2017-09-19T01:58:49.012Z,30.60
2017-09-19T02:01:16.496Z,30.23
2017-09-19T02:03:44.396Z,34.63
2017-09-19T02:06:11.873Z,25.33
2017-09-19T02:08:39.466Z,25.07
2017-09-19T02:11:07.946Z,34.10
2017-09-19T02:13:36.214Z,36.70
2017-09-19T02:16:04.475Z,35.00
2017-09-19T02:18:32.143Z,26.20
2017-09-19T02:20:59.629Z,29.63
2017-09-19T02:23:28.696Z,28.20
2017-09-19T02:25:56.586Z,25.00
2017-09-19T02:28:24.088Z,31.13
2017-09-19T02:30:51.551Z,26.80
2017-09-19T02:33:19.036Z,30.33
2017-09-19T02:35:46.526Z,31.17
2017-09-19T02:38:14.371Z,30.43
2017-09-19T02:40:41.884Z,24.50
2017-09-19T02:43:09.409Z,27.10
2017-09-19T02:45:37.797Z,31.27
2017-09-19T02:48:05.335Z,30.13
2017-09-19T02:50:33.576Z,34.97
2017-09-19T02:53:01.079Z,29.57
2017-09-19T02:55:28.595Z,37.37
2017-09-19T02:57:56.118Z,25.57
2017-09-19T03:00:23.620Z,30.53
2017-09-19T03:02:51.186Z,24.20
2017-09-19T03:05:19.478Z,25.33
2017-09-19T03:07:47.753Z,23.90
2017-09-19T03:10:16.008Z,21.83
2017-09-19T03:12:43.496Z,21.20
2017-09-19T03:15:11.016Z,22.93
2017-09-19T03:17:38.494Z,17.80
2017-09-19T03:20:06.765Z,18.57
2017-09-19T03:22:34.991Z,20.93
2017-09-19T03:25:02.542Z,23.10
2017-09-19T03:27:31.428Z,22.87
2017-09-19T03:29:58.954Z,19.50
2017-09-19T03:32:27.630Z,34.00
2017-09-19T03:34:55.107Z,17.93
2017-09-19T03:37:22.601Z,18.50
2017-09-19T03:39:50.076Z,29.43
2017-09-19T03:42:17.582Z,26.33
2017-09-19T03:44:45.874Z,25.63
2017-09-19T03:47:13.354Z,22.63
2017-09-19T03:49:40.841Z,19.70
2017-09-19T03:52:08.339Z,30.60
2017-09-19T03:54:35.808Z,19.80
2017-09-19T03:57:03.470Z,19.80
2017-09-19T03:59:30.951Z,17.17
2017-09-19T04:01:58.702Z,23.70
2017-09-19T04:04:26.224Z,24.60
2017-09-19T04:06:55.208Z,22.37
2017-09-19T04:09:23.568Z,26.13
2017-09-19T04:11:51.801Z,20.83
2017-09-19T04:14:19.297Z,20.80
2017-09-19T04:16:46.906Z,31.33
2017-09-19T04:19:14.577Z,18.90
2017-09-19T04:21:42.184Z,16.03
2017-09-19T04:24:10.612Z,19.43
2017-09-19T04:26:38.087Z,16.20
2017-09-19T04:29:05.719Z,19.33
2017-09-19T04:31:33.187Z,23.83
2017-09-19T04:34:00.670Z,16.83
2017-09-19T04:36:28.157Z,24.30
2017-09-19T04:38:55.609Z,28.40
2017-09-19T04:41:23.093Z,21.70
2017-09-19T04:43:51.358Z,24.97
2017-09-19T04:46:19.777Z,35.40
2017-09-19T04:48:47.278Z,26.43
2017-09-19T04:51:15.003Z,26.83
2017-09-19T04:53:42.489Z,26.53
2017-09-19T04:56:09.962Z,28.77
2017-09-19T04:58:37.636Z,26.37
2017-09-19T05:01:05.958Z,26.87
2017-09-19T05:03:33.527Z,29.07
2017-09-19T05:06:01.044Z,31.20
2017-09-19T05:08:29.645Z,29.67
2017-09-19T05:10:57.157Z,33.90
2017-09-19T05:13:24.668Z,41.77
2017-09-19T05:15:52.169Z,38.90
2017-09-19T05:18:19.628Z,49.83
2017-09-19T05:20:48.624Z,33.63
2017-09-19T05:23:16.132Z,33.57
2017-09-19T05:25:43.612Z,38.60
2017-09-19T05:28:11.169Z,35.30
2017-09-19T05:30:38.687Z,37.10
2017-09-19T05:33:06.993Z,40.87
2017-09-19T05:35:34.492Z,52.50
2017-09-19T05:38:02.001Z,45.67
2017-09-19T05:40:29.724Z,45.37
2017-09-19T05:42:57.256Z,48.70
2017-09-19T05:45:24.725Z,50.00
2017-09-19T05:47:52.368Z,71.73
2017-09-19T05:50:19.858Z,57.43
2017-09-19T05:52:47.496Z,50.57
2017-09-19T05:55:14.954Z,48.93
2017-09-19T05:57:42.497Z,45.50
2017-09-19T06:00:09.952Z,47.17
2017-09-19T06:02:37.494Z,43.60
2017-09-19T06:05:05.011Z,50.90
2017-09-19T06:07:32.469Z,40.30
2017-09-19T06:10:00.725Z,59.60
2017-09-19T06:12:28.212Z,44.30
2017-09-19T06:14:56.466Z,49.73
2017-09-19T06:17:24.162Z,48.30
2017-09-19T06:19:51.655Z,49.50
2017-09-19T06:22:19.125Z,54.20
2017-09-19T06:24:46.617Z,47.60
2017-09-19T06:27:14.848Z,46.73
2017-09-19T06:29:42.366Z,49.80
2017-09-19T06:32:09.841Z,48.13
2017-09-19T06:34:37.323Z,61.20
2017-09-19T06:37:05.144Z,59.17
2017-09-19T06:39:33.440Z,52.40
2017-09-19T06:42:01.474Z,52.50
2017-09-19T06:44:29.718Z,53.43
2017-09-19T06:46:57.203Z,58.10
2017-09-19T06:49:25.470Z,53.10
2017-09-19T06:51:52.988Z,51.70
2017-09-19T06:54:20.553Z,61.40
2017-09-19T06:56:48.029Z,53.83
2017-09-19T06:59:15.525Z,53.50
2017-09-19T07:01:43.768Z,50.47
2017-09-19T07:04:11.336Z,57.60
2017-09-19T07:06:39.582Z,68.50
2017-09-19T07:09:07.053Z,49.67
2017-09-19T07:11:34.582Z,53.77
2017-09-19T07:14:02.109Z,58.47
2017-09-19T07:16:30.396Z,59.33
2017-09-19T07:18:58.106Z,56.67
2017-09-19T07:21:25.625Z,65.67
2017-09-19T07:23:53.105Z,64.03
2017-09-19T07:26:20.626Z,59.40
2017-09-19T07:28:48.894Z,58.43
2017-09-19T07:31:17.304Z,58.53
2017-09-19T07:33:44.777Z,60.23
2017-09-19T07:36:12.279Z,61.63
2017-09-19T07:38:39.787Z,62.70
2017-09-19T07:41:07.252Z,50.63
2017-09-19T07:43:34.747Z,53.37
2017-09-19T07:46:02.239Z,67.20
2017-09-19T07:48:29.698Z,58.67
2017-09-19T07:50:57.222Z,49.10
2017-09-19T07:53:25.006Z,52.27
2017-09-19T07:55:53.410Z,53.87
2017-09-19T07:58:22.001Z,53.57
2017-09-19T08:00:49.507Z,52.97
2017-09-19T08:03:16.996Z,50.10
2017-09-19T08:05:44.847Z,51.50
2017-09-19T08:08:13.356Z,51.63
2017-09-19T08:10:40.873Z,50.07
2017-09-19T08:13:09.121Z,47.53
2017-09-19T08:15:36.687Z,48.87
2017-09-19T08:18:04.273Z,48.30
2017-09-19T08:20:32.616Z,45.33
2017-09-19T08:23:00.114Z,55.20
2017-09-19T08:25:27.631Z,45.30
2017-09-19T08:27:55.125Z,50.33
2017-09-19T08:30:23.444Z,57.63
2017-09-19T08:32:51.194Z,57.20
2017-09-19T08:35:18.699Z,59.80
2017-09-19T08:37:46.159Z,60.03
2017-09-19T08:40:13.636Z,45.03
2017-09-19T08:42:41.872Z,48.47
2017-09-19T08:45:09.808Z,45.10
2017-09-19T08:47:37.332Z,44.53
2017-09-19T08:50:04.847Z,47.40
2017-09-19T08:52:32.336Z,43.40
2017-09-19T08:54:59.824Z,51.87
2017-09-19T08:57:29.748Z,49.77
2017-09-19T08:59:57.233Z,51.27
2017-09-19T09:02:24.729Z,48.60
2017-09-19T09:04:52.267Z,59.83
2017-09-19T09:07:19.767Z,49.27
2017-09-19T09:09:48.339Z,50.60
2017-09-19T09:12:15.817Z,52.83
2017-09-19T09:14:43.283Z,51.47
2017-09-19T09:17:10.863Z,46.40
2017-09-19T09:19:38.384Z,46.73
2017-09-19T09:22:06.869Z,56.67
2017-09-19T09:24:35.108Z,56.20
2017-09-19T09:27:02.675Z,50.17
2017-09-19T09:29:30.919Z,53.63
2017-09-19T09:31:58.549Z,50.87
2017-09-19T09:34:27.040Z,72.13
2017-09-19T09:36:54.848Z,54.50
2017-09-19T09:39:22.359Z,47.27
2017-09-19T09:41:49.876Z,49.83
2017-09-19T09:44:17.355Z,57.40
2017-09-19T09:46:45.833Z,51.30
2017-09-19T09:49:14.200Z,52.37
2017-09-19T09:51:41.684Z,47.33
2017-09-19T09:54:09.201Z,57.10
2017-09-19T09:56:36.735Z,64.53
2017-09-19T09:59:04.388Z,63.30
2017-09-19T10:01:31.904Z,57.40
2017-09-19T10:04:00.178Z,62.27
2017-09-19T10:06:28.455Z,56.63
2017-09-19T10:08:56.717Z,62.47
2017-09-19T10:11:24.295Z,52.20
2017-09-19T10:13:52.533Z,54.77
2017-09-19T10:16:20.040Z,57.63
2017-09-19T10:18:47.563Z,56.27
2017-09-19T10:21:15.035Z,64.13
2017-09-19T10:23:42.561Z,53.03
2017-09-19T10:26:10.091Z,57.90
2017-09-19T10:28:37.532Z,56.53
2017-09-19T10:31:05.038Z,52.23
2017-09-19T10:33:32.532Z,43.10
2017-09-19T10:36:00.795Z,47.40
2017-09-19T10:38:29.033Z,48.17
2017-09-19T10:40:56.526Z,41.07
2017-09-19T10:43:23.998Z,41.17
2017-09-19T10:45:52.574Z,42.17
2017-09-19T10:48:21.233Z,37.93
2017-09-19T10:50:48.736Z,35.93
2017-09-19T10:53:16.222Z,35.83
2017-09-19T10:55:43.743Z,34.67
2017-09-19T10:58:11.987Z,35.73
2017-09-19T11:00:40.503Z,33.83
2017-09-19T11:03:08.753Z,42.53
2017-09-19T11:05:36.252Z,34.60
2017-09-19T11:08:03.739Z,40.80
2017-09-19T11:10:31.225Z,37.17
2017-09-19T11:12:59.089Z,40.43
2017-09-19T11:15:26.569Z,49.50
2017-09-19T11:17:54.886Z,51.40
2017-09-19T11:20:22.416Z,59.63
2017-09-19T11:22:50.712Z,53.80
2017-09-19T11:25:19.040Z,49.20
2017-09-19T11:27:46.605Z,56.87
2017-09-19T11:30:14.656Z,46.13
2017-09-19T11:32:42.252Z,48.43
2017-09-19T11:35:10.508Z,40.80
2017-09-19T11:37:38.191Z,45.63
2017-09-19T11:40:06.470Z,52.37
2017-09-19T11:42:34.701Z,50.07
2017-09-19T11:45:02.189Z,51.93
2017-09-19T11:47:30.474Z,41.97
2017-09-19T11:49:58.889Z,54.03
2017-09-19T11:52:26.429Z,47.67
2017-09-19T11:54:53.947Z,44.47
2017-09-19T11:57:21.456Z,43.03
2017-09-19T11:59:49.238Z,41.23
2017-09-19T12:02:16.996Z,38.63
2017-09-19T12:04:45.242Z,37.10
2017-09-19T12:07:13.229Z,44.00
2017-09-19T12:09:40.757Z,47.30
2017-09-19T12:12:09.075Z,41.70
2017-09-19T12:14:36.900Z,35.27
2017-09-19T12:17:05.286Z,40.37
2017-09-19T12:19:32.817Z,42.17
2017-09-19T12:22:00.301Z,48.17
2017-09-19T12:24:27.798Z,55.00
2017-09-19T12:26:55.362Z,54.93
2017-09-19T12:29:22.870Z,55.10
2017-09-19T12:31:51.113Z,42.37
2017-09-19T12:34:18.609Z,49.97
2017-09-19T12:36:46.098Z,48.47
2017-09-19T12:39:13.819Z,47.27
2017-09-19T12:41:42.077Z,44.60
2017-09-19T12:44:09.537Z,44.23
2017-09-19T12:46:37.039Z,44.90
2017-09-19T12:49:04.521Z,41.27
2017-09-19T12:51:32.423Z,44.70
2017-09-19T12:54:00.400Z,40.47
2017-09-19T12:56:28.698Z,44.20
2017-09-19T12:58:56.210Z,39.57
2017-09-19T13:01:23.829Z,40.40
2017-09-19T13:03:51.315Z,32.57
2017-09-19T13:06:18.824Z,36.80
2017-09-19T13:08:47.107Z,35.27
2017-09-19T13:11:15.377Z,38.03
2017-09-19T13:13:43.834Z,34.00
2017-09-19T13:16:11.488Z,25.57
2017-09-19T13:18:39.011Z,33.90
2017-09-19T13:21:06.531Z,30.13
2017-09-19T13:23:34.804Z,28.43
2017-09-19T13:26:03.248Z,23.87
2017-09-19T13:28:30.949Z,31.90
2017-09-19T13:31:11.031Z,25.40
2017-09-19T13:33:46.442Z,26.73
2017-09-19T13:36:14.985Z,30.67
2017-09-19T13:38:42.481Z,37.10
2017-09-19T13:41:10.869Z,29.73
2017-09-19T13:43:39.115Z,36.50
2017-09-19T13:46:06.696Z,29.97
2017-09-19T13:48:35.742Z,22.30
2017-09-19T13:51:03.303Z,30.43
2017-09-19T13:53:30.815Z,28.63
2017-09-19T13:55:59.075Z,30.97
2017-09-19T13:58:26.599Z,26.67
2017-09-19T14:00:54.077Z,24.00
2017-09-19T14:03:21.579Z,24.30
2017-09-19T14:05:49.166Z,30.57
2017-09-19T14:08:17.674Z,26.80
2017-09-19T14:10:45.408Z,27.37
2017-09-19T14:13:12.957Z,28.30
2017-09-19T14:15:40.661Z,28.97
2017-09-19T14:18:08.152Z,30.80
2017-09-19T14:20:36.397Z,23.57
2017-09-19T14:23:03.924Z,30.70
2017-09-19T14:25:31.402Z,23.90
2017-09-19T14:27:58.879Z,24.63
2017-09-19T14:30:26.342Z,33.20
2017-09-19T14:32:54.620Z,22.33
2017-09-19T14:35:24.046Z,19.53
2017-09-19T14:37:51.574Z,18.60
2017-09-19T14:40:19.495Z,20.23
2017-09-19T14:42:47.053Z,23.87
2017-09-19T14:45:14.535Z,20.87
2017-09-19T14:47:42.874Z,30.20
2017-09-19T14:50:10.404Z,28.30
2017-09-19T14:52:38.647Z,28.60
2017-09-19T14:55:08.771Z,29.40
2017-09-19T14:57:36.603Z,23.87
2017-09-19T15:00:04.082Z,25.63
2017-09-19T15:02:31.637Z,23.80
2017-09-19T15:04:59.137Z,30.97
2017-09-19T15:07:28.379Z,21.57
2017-09-19T15:09:55.879Z,28.93
2017-09-19T15:12:23.719Z,23.60
2017-09-19T15:14:51.358Z,26.90
2017-09-19T15:17:18.990Z,25.20
2017-09-19T15:19:46.513Z,30.07
2017-09-19T15:25:30.565Z,24.80
2017-09-19T15:27:58.055Z,29.20
2017-09-19T15:30:26.345Z,32.20
2017-09-19T15:32:54.708Z,27.07
2017-09-19T15:35:22.258Z,30.37
2017-09-19T15:37:49.804Z,27.00
2017-09-19T15:40:17.359Z,30.67
2017-09-19T15:42:45.182Z,30.40
2017-09-19T15:45:21.595Z,23.41
2017-09-19T15:47:49.223Z,24.73
2017-09-19T15:50:18.661Z,24.60
2017-09-19T15:52:46.218Z,25.77
2017-09-19T15:55:13.713Z,22.80
2017-09-19T15:57:42.334Z,27.53
2017-09-19T16:00:09.912Z,26.77
2017-09-19T16:02:37.628Z,22.10
2017-09-19T16:05:05.857Z,23.70
2017-09-19T16:07:33.362Z,23.43
2017-09-19T16:10:00.850Z,25.20
2017-09-19T16:15:46.379Z,25.60
2017-09-19T16:18:14.022Z,31.20
2017-09-19T16:20:41.548Z,28.37
2017-09-19T16:23:09.020Z,26.90
2017-09-19T16:25:36.559Z,30.43
2017-09-19T16:28:04.117Z,23.23
2017-09-19T16:30:31.751Z,24.83
2017-09-19T16:32:59.326Z,28.77
2017-09-19T16:35:27.614Z,26.70
2017-09-19T16:37:55.459Z,31.33
2017-09-19T16:40:23.758Z,25.27
2017-09-19T16:42:52.047Z,29.37
2017-09-19T16:45:20.741Z,30.97
2017-09-19T16:47:48.237Z,30.67
2017-09-19T16:50:15.782Z,33.40
2017-09-19T16:52:43.427Z,35.60
2017-09-19T16:55:11.869Z,32.63
2017-09-19T16:57:40.269Z,29.53
2017-09-19T17:00:08.272Z,36.33
2017-09-19T17:02:36.317Z,59.57
2017-09-19T17:05:03.846Z,35.27
2017-09-19T17:07:31.535Z,32.33
2017-09-19T17:09:59.087Z,36.60
2017-09-19T17:12:26.674Z,32.73
2017-09-19T17:14:54.262Z,40.83
2017-09-19T17:17:21.767Z,38.43
2017-09-19T17:19:50.071Z,33.80
2017-09-19T17:22:17.567Z,48.93
2017-09-19T17:24:45.977Z,32.73
2017-09-19T17:27:13.558Z,32.53
2017-09-19T17:29:41.046Z,38.87
2017-09-19T17:32:08.767Z,36.53
2017-09-19T17:34:36.237Z,44.33
2017-09-19T17:37:03.757Z,30.43
2017-09-19T17:39:32.100Z,36.97
2017-09-19T17:41:59.687Z,43.33
2017-09-19T17:44:28.069Z,39.17
2017-09-19T17:46:56.308Z,65.77
2017-09-19T17:49:23.797Z,48.73
2017-09-19T17:51:52.061Z,50.13
2017-09-19T17:54:20.261Z,45.43
2017-09-19T17:56:47.974Z,44.93
2017-09-19T17:59:15.460Z,41.50
2017-09-19T18:01:42.976Z,52.27
2017-09-19T18:04:10.454Z,53.63
2017-09-19T18:06:37.957Z,66.47
2017-09-19T18:09:05.460Z,62.70
2017-09-19T18:11:33.018Z,59.83
2017-09-19T18:14:00.559Z,66.57
2017-09-19T18:16:28.089Z,70.00
2017-09-19T18:18:55.584Z,59.23
2017-09-19T18:21:24.305Z,81.27
2017-09-19T18:23:51.790Z,64.57
2017-09-19T18:26:20.105Z,81.77
2017-09-19T18:28:49.358Z,89.47
2017-09-19T18:31:17.688Z,74.23
2017-09-19T18:33:45.390Z,72.07
2017-09-19T18:36:13.687Z,71.10
2017-09-19T18:38:41.227Z,91.43
2017-09-19T18:41:10.295Z,80.73
2017-09-19T18:43:37.844Z,83.13
2017-09-19T18:46:05.729Z,71.70
2017-09-19T18:48:33.257Z,65.70
2017-09-19T18:51:00.761Z,87.63
2017-09-19T18:53:29.033Z,74.13
2017-09-19T18:55:57.306Z,76.73
2017-09-19T18:58:25.072Z,62.80
2017-09-19T19:00:53.975Z,90.03
2017-09-19T19:03:22.265Z,79.60
2017-09-19T19:05:50.549Z,86.70
2017-09-19T19:08:18.035Z,75.30
2017-09-19T19:10:45.777Z,78.37
2017-09-19T19:13:13.794Z,82.57
2017-09-19T19:15:41.308Z,84.80
2017-09-19T19:18:08.841Z,83.23
2017-09-19T19:20:37.119Z,84.20
2017-09-19T19:23:05.395Z,72.20
2017-09-19T19:25:33.020Z,80.83
2017-09-19T19:28:00.532Z,109.00
2017-09-19T19:30:28.056Z,81.93
2017-09-19T19:32:56.397Z,68.20
2017-09-19T19:35:23.932Z,74.30
2017-09-19T19:37:51.446Z,74.50
2017-09-19T19:40:19.001Z,72.57
2017-09-19T19:42:46.548Z,84.13
2017-09-19T19:45:14.226Z,85.20
2017-09-19T19:47:42.853Z,73.77
2017-09-19T19:50:10.995Z,76.93
2017-09-19T19:52:39.499Z,84.50
2017-09-19T19:55:07.078Z,81.53
2017-09-19T19:57:34.635Z,91.17
2017-09-19T20:00:02.169Z,68.63
2017-09-19T20:02:29.726Z,72.40
2017-09-19T20:04:57.778Z,93.27
2017-09-19T20:07:46.290Z,69.07
2017-09-19T20:10:13.866Z,88.33
2017-09-19T20:12:41.420Z,79.87
2017-09-19T20:15:08.885Z,90.60
2017-09-19T20:17:36.351Z,98.67
2017-09-19T20:20:04.063Z,89.80
2017-09-19T20:22:31.781Z,84.63
2017-09-19T20:24:59.262Z,81.50
2017-09-19T20:27:28.335Z,82.20
2017-09-19T20:29:55.845Z,73.83
2017-09-19T20:32:23.363Z,74.30
2017-09-19T20:34:51.624Z,86.93
2017-09-19T20:37:19.130Z,78.57
2017-09-19T20:39:46.678Z,93.17
2017-09-19T20:42:14.405Z,76.40
2017-09-19T20:44:41.963Z,97.47
2017-09-19T20:47:09.526Z,91.93
2017-09-19T20:49:37.184Z,108.93
2017-09-19T20:52:04.703Z,100.53
2017-09-19T20:54:32.231Z,100.03
2017-09-19T20:56:59.769Z,97.43
2017-09-19T20:59:28.014Z,83.67
2017-09-19T21:01:55.649Z,106.80
2017-09-19T21:04:28.754Z,106.90
2017-09-19T21:07:01.939Z,90.13
2017-09-19T21:09:35.363Z,114.73
2017-09-19T21:12:08.659Z,95.53
2017-09-19T21:14:41.970Z,111.90
2017-09-19T21:17:15.062Z,94.10
2017-09-19T21:19:42.828Z,105.47
2017-09-19T21:22:11.058Z,110.17
2017-09-19T21:24:38.607Z,100.80
2017-09-19T21:27:06.088Z,104.73
2017-09-19T21:29:33.600Z,92.13
2017-09-19T21:32:01.087Z,102.90
2017-09-19T21:34:48.987Z,106.07
2017-09-19T21:37:16.887Z,103.83
2017-09-19T21:39:44.799Z,107.87
2017-09-19T21:42:12.313Z,112.27
2017-09-19T21:44:39.785Z,106.40
2017-09-19T21:47:07.406Z,100.20
2017-09-19T21:49:35.160Z,97.00
2017-09-19T21:52:03.405Z,99.47
2017-09-19T21:54:30.882Z,88.73
2017-09-19T21:56:59.175Z,79.87
2017-09-19T21:59:26.692Z,92.43
2017-09-19T22:01:54.328Z,88.67
2017-09-19T22:04:21.794Z,81.80
2017-09-19T22:06:49.273Z,75.30
2017-09-19T22:09:16.761Z,88.33
2017-09-19T22:11:44.338Z,89.87
2017-09-19T22:14:12.053Z,75.30
2017-09-19T22:16:40.054Z,76.03
2017-09-19T22:19:07.623Z,82.47
2017-09-19T22:21:35.735Z,83.43
2017-09-19T22:24:04.121Z,82.63
2017-09-19T22:26:31.814Z,78.13
2017-09-19T22:29:00.058Z,75.83
2017-09-19T22:31:27.555Z,71.63
2017-09-19T22:33:55.825Z,78.70
2017-09-19T22:36:23.345Z,66.47
2017-09-19T22:38:51.018Z,72.27
2017-09-19T22:41:18.473Z,89.20
2017-09-19T22:43:45.963Z,72.40
2017-09-19T22:46:14.197Z,76.07
2017-09-19T22:48:41.669Z,64.93
2017-09-19T22:51:09.180Z,69.27
2017-09-19T22:53:36.757Z,66.80
2017-09-19T22:56:04.223Z,64.57
2017-09-19T22:58:31.727Z,64.10
2017-09-19T23:00:59.957Z,67.50
2017-09-19T23:03:27.794Z,66.17
2017-09-19T23:05:55.273Z,59.27
2017-09-19T23:08:22.768Z,73.80
2017-09-19T23:10:51.043Z,64.17
2017-09-19T23:13:19.292Z,65.67
2017-09-19T23:15:46.984Z,59.93
2017-09-19T23:18:15.239Z,62.73
2017-09-19T23:20:44.224Z,65.20
2017-09-19T23:23:11.767Z,65.37
2017-09-19T23:25:39.443Z,59.13
2017-09-19T23:28:07.376Z,68.00
2017-09-19T23:30:34.850Z,62.20
2017-09-19T23:33:02.341Z,55.17
2017-09-19T23:35:29.826Z,59.93
2017-09-19T23:37:58.088Z,57.33
2017-09-19T23:40:26.558Z,55.73
2017-09-19T23:42:54.812Z,58.20
2017-09-19T23:45:22.389Z,58.80
2017-09-19T23:47:49.988Z,68.03
2017-09-19T23:50:18.603Z,58.00
2017-09-19T23:52:46.405Z,57.00
2017-09-19T23:55:14.646Z,75.13
2017-09-19T23:57:42.117Z,58.63
